Time;durP1;ratioP1;P1;durP2;ratioP2;P2;SDS_P1;SDS_P2;PMS_P1;PMS_P2;Temp;Humidity;BMP_temperature;BMP_pressure;BME280_temperature;BME280_humidity;BME280_pressure;Samples;Min_cycle;Max_cycle;Signal;HPM_P1;HPM_P2
2021/05/12 00:00:32;;;;;;;4.93;3.63;;;12.20;92.30;;;12.37;73.44;97099.31;5027318;28;20065;-44
2021/05/12 00:03:01;;;;;;;4.15;3.45;;;12.20;92.80;;;12.30;73.23;97103.72;5027106;28;20063;-48
2021/05/12 00:05:29;;;;;;;5.95;3.42;;;12.10;92.60;;;12.30;73.19;97106.38;5028599;28;20579;-48
2021/05/12 00:07:57;;;;;;;4.20;3.28;;;12.10;92.60;;;12.13;73.49;97113.75;5027078;28;20049;-46
2021/05/12 00:10:25;;;;;;;4.25;3.42;;;12.00;92.70;;;12.29;73.37;97114.56;5026149;28;20324;-44
2021/05/12 00:12:54;;;;;;;5.38;3.33;;;12.10;93.10;;;12.12;74.27;97125.44;5025536;28;20059;-47
2021/05/12 00:15:24;;;;;;;3.03;2.67;;;12.00;93.00;;;12.17;73.50;97116.88;5027160;28;20530;-45
2021/05/12 00:17:53;;;;;;;3.58;3.00;;;12.00;93.00;;;11.99;74.36;97122.59;5026248;28;20075;-46
2021/05/12 00:20:29;;;;;;;4.30;2.90;;;11.90;93.90;;;11.97;74.62;97121.94;5026008;28;20053;-46
2021/05/12 00:23:05;;;;;;;3.10;2.75;;;11.80;94.10;;;11.94;74.26;97111.63;5027668;28;20049;-48
2021/05/12 00:25:33;;;;;;;3.58;2.95;;;11.80;94.00;;;12.02;73.79;97117.72;5025338;28;20057;-45
2021/05/12 00:28:02;;;;;;;4.60;2.70;;;11.80;93.30;;;11.95;73.90;97119.44;5026154;28;20054;-46
2021/05/12 00:30:30;;;;;;;4.47;2.30;;;11.90;93.40;;;11.82;74.12;97120.06;5007352;28;20102;-46
2021/05/12 00:32:59;;;;;;;4.95;3.30;;;11.80;92.70;;;11.62;74.94;97119.72;5023526;28;20056;-46
2021/05/12 00:35:27;;;;;;;4.65;2.67;;;11.60;93.60;;;11.58;75.08;97126.44;5044878;28;20041;-44
2021/05/12 00:37:55;;;;;;;4.55;2.60;;;11.50;93.60;;;11.67;74.49;97127.22;5046842;28;20059;-44
2021/05/12 00:40:23;;;;;;;3.83;2.00;;;11.60;93.40;;;11.55;74.97;97132.13;5046050;28;20049;-49
2021/05/12 00:42:52;;;;;;;3.75;2.60;;;11.50;93.30;;;11.62;74.58;97134.91;5046056;28;20045;-45
2021/05/12 00:45:22;;;;;;;3.42;2.50;;;11.50;93.20;;;11.46;74.62;97132.38;5045580;28;20064;-45
2021/05/12 00:47:50;;;;;;;3.22;2.72;;;11.50;93.10;;;11.53;74.40;97128.81;5061807;28;20061;-44
2021/05/12 00:50:24;;;;;;;3.75;2.47;;;11.50;93.10;;;11.34;75.40;97129.28;5046417;28;20059;-46
2021/05/12 00:52:52;;;;;;;3.53;1.73;;;11.40;93.30;;;11.39;74.60;97129.59;5047734;28;20258;-46
2021/05/12 00:55:21;;;;;;;2.83;1.75;;;11.40;92.30;;;11.31;74.17;97138.47;5029559;28;20051;-46
2021/05/12 00:57:50;;;;;;;3.50;2.42;;;11.30;92.10;;;11.34;74.27;97123.97;5045407;28;20067;-47
2021/05/12 01:00:22;;;;;;;2.25;1.50;;;11.30;92.50;;;11.29;74.46;97137.84;5046174;28;20052;-47
2021/05/12 01:02:52;;;;;;;2.30;1.80;;;11.30;91.90;;;11.39;74.01;97127.75;5047231;28;20183;-44
2021/05/12 01:05:35;;;;;;;2.53;2.00;;;11.30;92.20;;;11.39;74.36;97133.09;5059444;28;20048;-47
2021/05/12 01:08:05;;;;;;;2.88;1.77;;;11.40;92.00;;;11.18;74.92;97133.72;5035467;28;20048;-46
2021/05/12 01:10:35;;;;;;;3.80;2.28;;;11.20;93.50;;;11.36;74.38;97144.13;5045078;28;20056;-47
2021/05/12 01:13:03;;;;;;;3.13;2.00;;;11.30;92.80;;;11.31;74.36;97157.13;5045621;28;20056;-45
2021/05/12 01:15:32;;;;;;;2.97;2.00;;;11.20;93.00;;;11.33;74.43;97146.31;5044589;28;20049;-44
2021/05/12 01:18:21;;;;;;;2.60;2.00;;;11.20;92.40;;;11.24;74.74;97158.84;5044326;28;20048;-49
2021/05/12 01:20:58;;;;;;;4.65;3.35;;;11.20;93.10;;;11.16;75.00;97143.75;5029236;28;20053;-46
2021/05/12 01:23:30;;;;;;;5.57;2.70;;;11.20;92.90;;;11.25;74.67;97160.50;5046655;28;20067;-47
2021/05/12 01:26:00;;;;;;;3.38;2.70;;;11.20;92.30;;;11.14;74.93;97156.41;5047146;28;20057;-47
2021/05/12 01:28:32;;;;;;;4.35;2.90;;;11.20;92.70;;;11.22;74.62;97166.19;5045533;28;20538;-48
2021/05/12 01:31:08;;;;;;;5.97;3.38;;;11.20;92.70;;;11.16;74.53;97162.38;5046403;28;20056;-46
2021/05/12 01:33:37;;;;;;;4.07;3.25;;;11.20;92.30;;;11.09;74.59;97165.94;5046012;28;20526;-45
2021/05/12 01:36:07;;;;;;;3.42;2.90;;;11.10;92.50;;;11.11;74.73;97164.78;5045114;28;20041;-46
2021/05/12 01:38:38;;;;;;;4.32;3.08;;;11.10;93.10;;;10.97;75.32;97166.38;5045455;28;20052;-45
2021/05/12 01:41:06;;;;;;;5.18;3.47;;;11.00;92.50;;;10.98;75.10;97151.19;5045279;28;20455;-47
2021/05/12 01:43:36;;;;;;;3.90;3.20;;;11.00;93.50;;;11.09;74.46;97156.13;5045261;28;20062;-45
2021/05/12 01:46:05;;;;;;;3.58;3.10;;;11.00;92.70;;;10.97;75.17;97150.38;5044527;28;20048;-47
2021/05/12 01:48:35;;;;;;;5.55;3.55;;;11.00;92.80;;;10.96;74.90;97155.88;5045661;28;20070;-44
2021/05/12 01:51:06;;;;;;;4.47;3.70;;;11.00;93.00;;;10.84;75.16;97155.44;5044901;28;20246;-45
2021/05/12 01:53:34;;;;;;;5.20;3.55;;;10.80;93.50;;;10.83;75.60;97157.25;5043971;28;20116;-47
2021/05/12 01:56:03;;;;;;;4.78;3.42;;;10.90;93.70;;;10.94;75.37;97156.03;5046361;28;20106;-47
2021/05/12 01:58:32;;;;;;;6.55;3.80;;;10.90;93.20;;;11.03;74.85;97157.66;5044826;28;20049;-45
2021/05/12 02:01:01;;;;;;;4.97;3.33;;;11.00;92.80;;;11.01;74.89;97159.69;5045200;28;20057;-46
2021/05/12 02:03:29;;;;;;;7.30;3.75;;;11.00;93.10;;;11.12;74.27;97150.44;5045495;28;20140;-48
2021/05/12 02:05:57;;;;;;;6.38;3.90;;;11.10;92.40;;;10.88;75.11;97150.59;5045039;28;20206;-44
2021/05/12 02:08:29;;;;;;;5.25;3.80;;;10.90;93.10;;;10.96;75.02;97164.69;5044050;28;20277;-46
2021/05/12 02:11:02;;;;;;;6.50;4.32;;;11.00;92.70;;;11.00;74.57;97157.19;5045306;28;20053;-45
2021/05/12 02:13:31;;;;;;;5.18;3.95;;;11.00;92.30;;;10.92;74.56;97157.22;5042467;28;20070;-45
2021/05/12 02:16:05;;;;;;;6.00;3.97;;;11.00;92.20;;;10.96;74.71;97150.56;5044233;28;20055;-44
2021/05/12 02:18:34;;;;;;;6.88;3.55;;;11.00;92.10;;;11.00;74.45;97149.19;5043620;28;20095;-46
2021/05/12 02:21:03;;;;;;;5.60;4.00;;;11.00;92.00;;;10.98;74.58;97153.88;5045283;28;20049;-47
2021/05/12 02:23:31;;;;;;;6.18;4.05;;;11.00;91.70;;;10.89;74.85;97155.72;5044187;28;20049;-44
2021/05/12 02:26:00;;;;;;;5.43;4.10;;;10.90;91.90;;;10.91;74.63;97151.06;5044384;28;20062;-44
2021/05/12 02:28:28;;;;;;;5.67;4.53;;;11.00;91.70;;;10.92;74.43;97154.56;5043288;28;20061;-44
2021/05/12 02:30:56;;;;;;;6.30;4.75;;;11.00;91.20;;;10.96;74.56;97154.03;5043716;28;20056;-45
2021/05/12 02:33:25;;;;;;;6.27;4.13;;;11.00;91.40;;;11.07;74.10;97149.31;5038436;28;20071;-46
2021/05/12 02:35:53;;;;;;;10.10;4.50;;;11.10;91.50;;;11.03;73.83;97159.47;5023683;28;20340;-47
2021/05/12 02:38:23;;;;;;;7.60;4.47;;;11.10;91.20;;;10.97;74.20;97147.72;5024527;28;20049;-46
2021/05/12 02:40:51;;;;;;;5.97;5.10;;;11.00;91.40;;;10.95;74.62;97143.56;5024629;28;20217;-44
2021/05/12 02:43:19;;;;;;;7.20;5.20;;;10.90;91.80;;;10.91;74.58;97140.41;5024794;28;20057;-45
2021/05/12 02:45:48;;;;;;;7.60;5.63;;;10.90;91.60;;;11.00;74.26;97147.34;5022258;28;20057;-47
2021/05/12 02:48:16;;;;;;;12.05;5.28;;;11.00;91.50;;;10.88;74.54;97156.75;5024390;28;20697;-45
2021/05/12 02:50:44;;;;;;;9.43;5.63;;;10.90;92.00;;;10.87;74.44;97152.41;5025322;28;20055;-45
2021/05/12 02:53:13;;;;;;;8.85;6.18;;;10.80;92.30;;;10.80;75.11;97151.47;5025011;28;20053;-45
2021/05/12 02:55:41;;;;;;;6.93;4.97;;;10.80;92.20;;;10.70;75.04;97149.03;5023797;28;20060;-44
2021/05/12 02:58:10;;;;;;;9.52;6.28;;;10.80;92.30;;;10.77;74.68;97149.97;5007994;28;20060;-44
2021/05/12 03:00:41;;;;;;;8.38;5.05;;;10.80;92.20;;;10.76;75.06;97144.81;5024512;28;20064;-45
2021/05/12 03:03:11;;;;;;;12.60;6.43;;;10.80;92.50;;;10.87;74.90;97138.28;5024985;28;20063;-45
2021/05/12 03:05:40;;;;;;;8.45;5.72;;;10.90;92.40;;;10.88;74.58;97148.75;5024110;28;20064;-44
2021/05/12 03:08:09;;;;;;;8.03;6.23;;;10.80;92.30;;;10.82;75.23;97146.81;5025375;28;20051;-44
2021/05/12 03:10:38;;;;;;;7.15;5.55;;;10.80;92.70;;;10.80;75.08;97151.47;5037425;28;20061;-44
2021/05/12 03:13:07;;;;;;;12.50;6.28;;;10.80;92.80;;;10.75;75.29;97154.63;5023744;28;20067;-46
2021/05/12 03:15:36;;;;;;;9.32;6.57;;;10.80;92.70;;;10.84;74.69;97150.13;5022918;28;20051;-46
2021/05/12 03:18:07;;;;;;;7.60;6.60;;;10.80;92.60;;;10.79;74.92;97145.31;5024041;28;20042;-44
2021/05/12 03:20:36;;;;;;;11.45;7.10;;;10.80;92.70;;;10.96;74.47;97154.03;5024866;28;20067;-44
2021/05/12 03:23:05;;;;;;;7.45;6.07;;;11.00;92.40;;;10.91;74.94;97161.72;5021890;28;20060;-44
2021/05/12 03:25:35;;;;;;;12.17;7.40;;;10.90;92.60;;;10.87;75.23;97160.41;5023804;28;20051;-45
2021/05/12 03:28:05;;;;;;;11.63;7.63;;;10.90;92.40;;;10.92;74.67;97155.38;5023326;28;20424;-48
2021/05/12 03:30:37;;;;;;;15.23;10.00;;;10.90;92.30;;;10.78;75.18;97161.47;5006562;28;20111;-45
2021/05/12 03:33:08;;;;;;;13.95;7.88;;;10.80;92.90;;;10.83;75.31;97159.09;5024989;28;20242;-48
2021/05/12 03:35:39;;;;;;;12.27;7.15;;;10.80;93.20;;;10.82;74.90;97168.94;5006221;28;20049;-46
2021/05/12 03:38:10;;;;;;;10.07;7.78;;;10.80;92.70;;;10.72;75.46;97170.97;5024803;28;20060;-46
2021/05/12 03:40:40;;;;;;;12.30;7.05;;;10.70;93.60;;;10.77;75.53;97165.94;5026632;28;20327;-45
2021/05/12 03:43:10;;;;;;;12.52;7.55;;;10.80;93.40;;;10.71;75.51;97171.97;5026096;28;20072;-43
2021/05/12 03:45:39;;;;;;;11.20;6.63;;;10.70;93.40;;;10.65;75.62;97170.00;5027894;28;20075;-45
2021/05/12 03:48:08;;;;;;;11.35;7.70;;;10.70;93.40;;;10.72;75.66;97162.16;5026551;28;20083;-45
2021/05/12 03:50:37;;;;;;;9.05;7.05;;;10.80;93.00;;;10.69;75.79;97166.00;5027552;28;20351;-50
2021/05/12 03:53:08;;;;;;;12.13;7.47;;;10.70;93.20;;;10.72;75.55;97165.66;5027345;28;20350;-46
2021/05/12 03:55:39;;;;;;;10.40;6.80;;;10.70;93.50;;;10.64;75.76;97155.03;5027628;28;20042;-46
2021/05/12 03:58:08;;;;;;;10.93;7.97;;;10.70;93.40;;;10.66;75.63;97154.84;5026399;28;20665;-47
2021/05/12 04:00:36;;;;;;;12.70;8.30;;;10.70;93.50;;;10.75;75.71;97167.13;5028125;28;20057;-45
2021/05/12 04:03:05;;;;;;;14.10;7.93;;;10.70;93.80;;;10.73;75.36;97159.31;5027337;28;20049;-45
2021/05/12 04:05:33;;;;;;;9.75;7.55;;;10.70;93.30;;;10.73;75.60;97161.97;5042646;28;20342;-45
2021/05/12 04:08:03;;;;;;;10.23;6.97;;;10.70;93.10;;;10.66;75.45;97163.66;5028877;28;20053;-43
2021/05/12 04:10:36;;;;;;;10.47;7.47;;;10.70;93.30;;;10.67;75.60;97159.19;5027304;28;20057;-46
2021/05/12 04:13:04;;;;;;;12.60;8.07;;;10.70;93.20;;;10.76;75.11;97158.97;5027855;28;20045;-46
2021/05/12 04:15:32;;;;;;;11.82;7.28;;;10.70;93.00;;;10.70;75.09;97153.50;5027205;28;20331;-46
2021/05/12 04:18:00;;;;;;;14.40;7.13;;;10.70;92.80;;;10.75;75.25;97161.81;5026692;28;20063;-45
2021/05/12 04:20:29;;;;;;;10.80;7.13;;;10.80;92.30;;;10.77;74.83;97159.81;5027729;28;20048;-46
2021/05/12 04:22:57;;;;;;;10.73;7.10;;;10.80;92.00;;;10.74;74.69;97168.13;5041995;28;20056;-45
2021/05/12 04:25:25;;;;;;;16.60;7.57;;;10.80;91.70;;;10.65;75.38;97159.34;5027178;28;20053;-45
2021/05/12 04:27:54;;;;;;;7.47;6.13;;;10.70;92.50;;;10.60;74.83;97167.88;5026280;28;20061;-44
2021/05/12 04:30:23;;;;;;;12.05;8.13;;;10.60;92.10;;;10.65;75.22;97167.34;5040696;23;20061;-54
2021/05/12 04:32:51;;;;;;;8.35;6.00;;;10.60;92.70;;;10.59;74.77;97166.19;5040769;28;20048;-55
2021/05/12 04:35:19;;;;;;;9.15;6.03;;;10.60;91.50;;;10.67;74.75;97162.69;5047462;28;20041;-56
2021/05/12 04:37:49;;;;;;;6.95;4.75;;;10.70;92.00;;;10.66;74.04;97184.97;5045726;28;20048;-56
2021/05/12 04:40:19;;;;;;;9.13;5.10;;;10.70;90.10;;;10.71;74.29;97169.31;5062466;28;20068;-55
2021/05/12 04:42:48;;;;;;;7.85;4.57;;;10.70;90.80;;;10.39;74.58;97171.13;5046678;28;20049;-52
2021/05/12 04:45:19;;;;;;;10.07;5.60;;;10.50;90.60;;;10.62;74.38;97181.00;5045959;28;20060;-56
2021/05/12 04:47:57;;;;;;;9.52;4.93;;;10.60;91.10;;;10.51;74.07;97174.22;5047185;28;20057;-53
2021/05/12 04:50:29;;;;;;;5.60;4.40;;;10.50;90.40;;;10.56;73.77;97173.69;5045656;28;20053;-54
2021/05/12 04:52:59;;;;;;;9.38;4.78;;;10.50;90.30;;;10.57;73.79;97175.38;5048035;28;20062;-55
2021/05/12 04:55:27;;;;;;;5.90;4.30;;;10.60;90.10;;;10.69;73.64;97175.81;5047112;28;20045;-54
2021/05/12 04:57:56;;;;;;;6.80;5.03;;;10.60;89.80;;;10.71;73.22;97176.47;5047071;28;20049;-55
2021/05/12 05:00:26;;;;;;;5.57;4.20;;;10.70;89.20;;;10.60;73.29;97181.19;5047184;28;20067;-55
2021/05/12 05:02:55;;;;;;;5.50;3.87;;;10.60;89.60;;;10.44;73.45;97174.06;5046434;28;20354;-56
2021/05/12 05:05:25;;;;;;;7.17;4.03;;;10.50;89.00;;;10.40;73.36;97179.91;5046438;28;20433;-56
2021/05/12 05:07:54;;;;;;;5.43;4.63;;;10.50;89.30;;;10.43;73.62;97183.06;5045718;28;20053;-52
2021/05/12 05:10:23;;;;;;;6.55;4.85;;;10.40;89.60;;;10.54;73.56;97186.34;5060917;28;20243;-55
2021/05/12 05:12:51;;;;;;;10.15;4.78;;;10.50;90.10;;;10.60;73.12;97194.50;5061458;28;20075;-57
2021/05/12 05:15:20;;;;;;;6.50;4.68;;;10.60;88.90;;;10.55;73.35;97185.38;5046323;28;20165;-58
2021/05/12 05:17:52;;;;;;;7.57;4.35;;;10.60;89.20;;;10.64;72.85;97197.63;5045719;28;20057;-56
2021/05/12 05:20:23;;;;;;;6.20;4.00;;;10.70;88.50;;;10.59;72.98;97197.31;5045402;28;20059;-53
2021/05/12 05:22:51;;;;;;;6.28;4.80;;;10.60;88.90;;;10.64;73.21;97198.47;5045237;28;20275;-58
2021/05/12 05:25:20;;;;;;;8.43;4.30;;;10.60;88.90;;;10.60;73.05;97201.63;5045416;28;20063;-57
2021/05/12 05:27:48;;;;;;;7.22;4.03;;;10.60;88.80;;;10.70;73.00;97202.28;5045244;28;20071;-58
2021/05/12 05:30:17;;;;;;;6.70;3.90;;;10.70;89.20;;;10.73;72.47;97206.41;5045208;28;20052;-57
2021/05/12 05:33:04;;;;;;;7.37;3.83;;;10.70;87.70;;;10.63;72.40;97207.44;5049972;28;20396;-52
2021/05/12 05:35:51;;;;;;;4.60;3.45;;;10.60;87.10;;;10.61;71.93;97211.28;5046115;28;20056;-54
2021/05/12 05:38:38;;;;;;;6.93;4.30;;;10.60;87.50;;;10.53;72.50;97216.66;5049799;28;20055;-54
2021/05/12 05:41:25;;;;;;;4.70;3.90;;;10.50;87.80;;;10.51;72.58;97214.16;5049918;28;20656;-52
2021/05/12 05:44:12;;;;;;;6.37;4.50;;;10.50;88.10;;;10.71;72.66;97219.06;5046037;28;20051;-54
2021/05/12 05:47:00;;;;;;;5.63;3.65;;;10.60;88.20;;;10.72;72.17;97223.38;5048898;28;20064;-55
2021/05/12 05:49:51;;;;;;;5.82;3.70;;;10.70;88.00;;;10.61;71.65;97220.09;5046693;28;20364;-55
2021/05/12 05:52:38;;;;;;;8.03;4.70;;;10.60;86.10;;;10.64;72.24;97216.25;5044729;28;20499;-53
2021/05/12 05:55:24;;;;;;;7.40;4.73;;;10.60;87.60;;;10.71;72.20;97221.72;5050063;28;20064;-55
2021/05/12 05:58:18;;;;;;;6.88;3.55;;;10.60;87.70;;;10.55;72.45;97217.31;5046134;28;20047;-54
2021/05/12 06:01:05;;;;;;;5.15;3.83;;;10.50;87.70;;;10.52;72.35;97226.44;5044456;28;20063;-54
2021/05/12 06:03:34;;;;;;;5.53;3.83;;;10.50;88.20;;;10.60;72.39;97231.75;5045286;28;20353;-54
2021/05/12 06:06:21;;;;;;;9.87;4.07;;;10.60;87.50;;;10.58;71.87;97239.06;5033870;28;20067;-54
2021/05/12 06:09:07;;;;;;;6.13;3.30;;;10.60;87.20;;;10.58;72.31;97236.41;5025484;28;20253;-56
2021/05/12 06:11:54;;;;;;;6.25;3.35;;;10.60;87.60;;;10.40;72.33;97246.44;5029597;28;20059;-53
2021/05/12 06:14:59;;;;;;;;;;;10.50;87.60;;;10.47;72.38;97241.25;4906549;29;20085;-55
2021/05/12 06:18:03;;;;;;;5.47;3.40;;;10.50;88.00;;;10.61;72.27;97245.91;5028578;28;19925;-55
2021/05/12 06:20:49;;;;;;;5.07;2.90;;;10.60;87.60;;;10.68;72.18;97230.88;5027895;28;20059;-58
2021/05/12 06:23:36;;;;;;;5.37;3.77;;;10.70;87.50;;;10.63;72.14;97243.88;5024686;28;20059;-57
2021/05/12 06:26:23;;;;;;;6.17;3.77;;;10.70;87.10;;;10.65;71.75;97244.53;5029240;28;20056;-56
2021/05/12 06:29:11;;;;;;;6.70;3.63;;;10.70;87.50;;;10.68;72.01;97243.38;5027279;28;20048;-49
2021/05/12 06:31:58;;;;;;;5.10;3.58;;;10.70;87.00;;;10.70;71.49;97244.03;5025152;28;20063;-56
2021/05/12 06:34:45;;;;;;;5.97;3.03;;;10.70;86.60;;;10.63;71.61;97252.69;5028141;28;20056;-54
2021/05/12 06:37:32;;;;;;;6.50;3.97;;;10.60;86.50;;;10.68;71.64;97238.88;5026873;28;20234;-56
2021/05/12 06:40:18;;;;;;;4.23;3.40;;;10.70;86.70;;;10.71;71.65;97245.69;5023621;28;20362;-57
2021/05/12 06:42:46;;;;;;;6.32;3.42;;;10.80;86.20;;;10.61;71.40;97236.06;5024479;28;20053;-54
2021/05/12 06:45:15;;;;;;;6.13;3.70;;;10.70;86.20;;;10.63;71.39;97243.88;5022934;28;20258;-57
2021/05/12 06:47:43;;;;;;;6.18;3.05;;;10.70;86.20;;;10.66;71.79;97246.19;5023347;28;20045;-54
2021/05/12 06:50:11;;;;;;;8.35;3.83;;;10.70;87.10;;;10.57;71.42;97244.59;5023599;28;20049;-54
2021/05/12 06:52:39;;;;;;;6.85;3.55;;;10.60;86.20;;;10.66;71.35;97243.53;5022286;28;20049;-56
2021/05/12 06:55:08;;;;;;;6.33;3.83;;;10.70;87.40;;;10.73;71.66;97233.88;5024678;28;20054;-55
2021/05/12 06:57:37;;;;;;;5.40;3.33;;;10.70;87.50;;;10.61;72.00;97237.91;5024310;28;20075;-54
2021/05/12 07:00:07;;;;;;;4.78;3.17;;;10.70;87.40;;;10.64;71.87;97237.56;5024256;28;20057;-55
2021/05/12 07:02:43;;;;;;;5.13;2.88;;;10.70;86.70;;;10.50;71.06;97238.28;5024148;28;20058;-56
2021/05/12 07:05:14;;;;;;;6.82;3.88;;;10.60;86.10;;;10.62;71.39;97228.91;5025743;28;20051;-54
2021/05/12 07:07:43;;;;;;;4.93;3.30;;;10.60;87.30;;;10.61;71.68;97241.38;5022580;28;20251;-55
2021/05/12 07:10:14;;;;;;;7.00;3.60;;;10.60;87.20;;;10.62;71.70;97235.09;5023273;28;20056;-56
2021/05/12 07:12:42;;;;;;;7.20;3.00;;;10.60;86.90;;;10.66;71.59;97242.72;5024238;28;20053;-53
2021/05/12 07:15:12;;;;;;;5.30;3.00;;;10.60;86.80;;;10.57;71.94;97240.06;5039896;28;20056;-55
2021/05/12 07:17:41;;;;;;;5.93;3.20;;;10.60;86.60;;;10.61;71.93;97259.19;5026179;28;20053;-57
2021/05/12 07:20:11;;;;;;;5.95;2.97;;;10.60;87.00;;;10.71;71.52;97257.16;5027155;28;20063;-55
2021/05/12 07:22:42;;;;;;;7.93;3.00;;;10.70;87.30;;;10.61;71.09;97262.69;5026855;28;20057;-54
2021/05/12 07:25:11;;;;;;;4.82;3.35;;;10.60;86.00;;;10.58;71.44;97256.88;5009135;28;20046;-57
2021/05/12 07:27:39;;;;;;;5.85;3.78;;;10.60;86.70;;;10.50;72.11;97260.38;5027138;28;20220;-56
2021/05/12 07:30:09;;;;;;;6.18;3.15;;;10.60;86.90;;;10.62;71.50;97251.06;5028497;28;20049;-56
2021/05/12 07:32:37;;;;;;;4.72;2.55;;;10.60;87.30;;;10.72;71.36;97260.66;5028408;28;20262;-56
2021/05/12 07:35:07;;;;;;;6.30;3.35;;;10.70;87.10;;;10.66;71.42;97250.69;5027712;28;20049;-55
2021/05/12 07:37:35;;;;;;;7.10;3.07;;;10.70;86.50;;;10.63;71.56;97246.56;5026823;28;20058;-56
2021/05/12 07:40:05;;;;;;;4.67;3.10;;;10.60;86.50;;;10.59;71.03;97254.03;5038132;28;20052;-56
2021/05/12 07:42:35;;;;;;;4.90;3.13;;;10.60;85.80;;;10.59;71.32;97251.38;5039140;28;20323;-56
2021/05/12 07:45:04;;;;;;;4.25;2.72;;;10.60;86.60;;;10.74;71.69;97242.66;5046833;28;20044;-56
2021/05/12 07:47:32;;;;;;;6.82;3.33;;;10.70;86.70;;;10.76;70.93;97246.00;5036378;28;20057;-55
2021/05/12 07:50:01;;;;;;;5.22;2.63;;;10.80;86.20;;;10.57;71.11;97242.75;5027036;28;20057;-55
2021/05/12 07:52:29;;;;;;;7.38;2.60;;;10.60;85.00;;;10.64;71.16;97241.06;5027412;28;20057;-55
2021/05/12 07:54:57;;;;;;;5.20;3.25;;;10.70;86.30;;;10.62;71.20;97234.22;5025759;28;20064;-54
2021/05/12 07:57:25;;;;;;;6.03;3.50;;;10.60;85.70;;;10.74;71.09;97229.34;5025195;28;20239;-53
2021/05/12 07:59:53;;;;;;;5.27;2.83;;;10.80;85.50;;;10.72;70.64;97223.38;5022373;28;20055;-56
2021/05/12 08:02:22;;;;;;;7.07;2.78;;;10.80;85.60;;;10.77;70.19;97226.38;5025502;28;20045;-55
2021/05/12 08:04:50;;;;;;;4.68;2.60;;;10.90;84.10;;;10.93;70.58;97222.78;5024570;28;20361;-52
2021/05/12 08:07:18;;;;;;;3.40;2.40;;;11.00;85.30;;;10.79;71.04;97225.19;5025359;28;20434;-53
2021/05/12 08:09:46;;;;;;;4.25;2.78;;;10.90;85.60;;;10.66;71.30;97229.41;5024222;28;20474;-56
2021/05/12 08:12:14;;;;;;;6.57;2.78;;;10.80;85.30;;;10.71;71.03;97219.06;5023392;28;20372;-56
2021/05/12 08:14:43;;;;;;;3.40;2.60;;;10.80;85.50;;;10.68;71.63;97219.41;5041196;28;20080;-57
2021/05/12 08:17:11;;;;;;;7.18;3.13;;;10.80;85.90;;;10.84;70.74;97230.00;5026270;28;20053;-56
2021/05/12 08:19:39;;;;;;;5.53;3.47;;;11.00;84.70;;;10.74;70.57;97227.56;5024639;28;20351;-56
2021/05/12 08:22:09;;;;;;;5.00;3.03;;;10.90;84.30;;;10.59;70.90;97234.59;5023386;28;20077;-55
2021/05/12 08:24:37;;;;;;;4.38;3.20;;;10.80;84.50;;;10.71;71.31;97230.53;5026722;28;20067;-55
2021/05/12 08:27:06;;;;;;;5.32;2.65;;;10.80;85.50;;;10.86;70.69;97228.00;5024731;28;20053;-54
2021/05/12 08:29:41;;;;;;;7.70;3.22;;;11.00;85.40;;;10.78;70.50;97239.50;5027524;28;20054;-55
2021/05/12 08:32:11;;;;;;;6.13;3.03;;;10.90;84.40;;;10.82;70.30;97235.50;5028776;28;20075;-55
2021/05/12 08:34:40;;;;;;;4.35;2.67;;;10.90;84.50;;;10.86;70.23;97237.81;5024785;28;20373;-55
2021/05/12 08:37:08;;;;;;;3.97;3.22;;;10.90;84.60;;;10.92;70.18;97240.63;5025893;28;20045;-55
2021/05/12 08:39:36;;;;;;;4.43;2.60;;;11.00;83.80;;;10.72;70.23;97244.69;5025099;28;20610;-55
2021/05/12 08:42:07;;;;;;;3.70;2.95;;;10.80;83.70;;;10.69;70.39;97242.38;5027238;28;20381;-56
2021/05/12 08:44:35;;;;;;;4.55;2.83;;;10.80;84.60;;;10.89;70.30;97245.47;5027253;28;20234;-54
2021/05/12 08:47:07;;;;;;;5.03;3.08;;;10.90;85.20;;;10.89;70.45;97245.47;5025734;28;20072;-54
2021/05/12 08:49:37;;;;;;;4.05;2.80;;;10.90;85.40;;;10.91;70.09;97244.28;5039848;28;20342;-56
2021/05/12 08:52:06;;;;;;;3.80;3.15;;;11.00;84.10;;;10.92;70.14;97248.59;5042011;28;20057;-54
2021/05/12 08:54:36;;;;;;;5.28;2.35;;;11.00;84.60;;;10.93;69.99;97238.78;5026212;28;20263;-54
2021/05/12 08:57:05;;;;;;;8.43;3.20;;;10.90;84.50;;;10.86;70.55;97241.31;5040462;28;20053;-54
2021/05/12 08:59:33;;;;;;;3.83;2.70;;;10.90;84.50;;;10.78;70.55;97234.19;5025830;28;20060;-53
2021/05/12 09:02:05;;;;;;;6.43;3.03;;;10.90;84.80;;;10.89;70.38;97237.47;5027696;28;20051;-55
2021/05/12 09:04:33;;;;;;;4.82;2.50;;;11.00;83.80;;;10.80;70.54;97236.69;5026306;28;20254;-54
2021/05/12 09:07:04;;;;;;;3.58;2.53;;;10.90;84.70;;;10.97;70.12;97235.59;5024954;28;20072;-55
2021/05/12 09:09:32;;;;;;;4.78;2.33;;;11.10;84.00;;;11.01;70.25;97238.72;5026920;28;20366;-55
2021/05/12 09:12:01;;;;;;;5.35;2.45;;;11.20;83.90;;;11.20;70.51;97232.16;5027503;28;20063;-55
2021/05/12 09:14:36;;;;;;;4.10;2.50;;;11.40;83.90;;;11.19;69.87;97228.66;5024827;28;20071;-52
2021/05/12 09:17:05;;;;;;;5.35;2.42;;;11.40;83.70;;;11.37;69.96;97236.38;5025166;28;20234;-54
2021/05/12 09:19:33;;;;;;;4.15;2.20;;;11.60;83.50;;;11.48;69.79;97235.16;5025640;28;20075;-51
2021/05/12 09:22:05;;;;;;;3.33;2.38;;;11.70;82.90;;;11.56;69.87;97228.94;5026714;28;20262;-54
2021/05/12 09:24:41;;;;;;;5.53;2.38;;;11.80;82.70;;;11.64;69.44;97228.88;5025934;28;20047;-55
2021/05/12 09:27:16;;;;;;;5.63;2.80;;;11.90;82.00;;;11.67;69.34;97233.84;5008098;28;20053;-54
2021/05/12 09:30:00;;;;;;;3.53;2.05;;;11.90;82.20;;;11.69;68.15;97231.00;5025773;28;20045;-52
2021/05/12 09:32:44;;;;;;;3.33;2.20;;;12.00;80.30;;;11.75;68.64;97232.97;5020645;28;20072;-55
2021/05/12 09:35:14;;;;;;;4.03;3.22;;;12.00;79.80;;;11.68;67.37;97238.16;5025016;28;20053;-55
2021/05/12 09:37:45;;;;;;;5.32;2.50;;;11.90;79.60;;;11.48;67.89;97229.00;5021048;28;20045;-55
2021/05/12 09:40:20;;;;;;;5.30;2.92;;;11.70;79.50;;;11.50;68.39;97235.81;5022975;28;20049;-52
2021/05/12 09:43:01;;;;;;;3.95;2.60;;;11.70;81.30;;;11.54;67.67;97239.78;5026829;28;20041;-52
2021/05/12 09:45:32;;;;;;;4.05;2.53;;;11.80;79.90;;;11.76;68.24;97237.28;5023953;28;20046;-52
2021/05/12 09:48:03;;;;;;;3.28;2.28;;;11.90;81.00;;;11.77;68.22;97236.28;5024771;28;20064;-56
2021/05/12 09:50:37;;;;;;;4.00;2.97;;;12.00;80.90;;;11.92;67.42;97236.34;5025058;28;20061;-54
2021/05/12 09:53:14;;;;;;;2.65;2.10;;;12.20;79.60;;;11.82;66.41;97244.56;5026036;28;20041;-54
2021/05/12 09:55:50;;;;;;;6.32;3.38;;;12.10;77.80;;;11.87;67.37;97239.53;5025712;28;20049;-54
2021/05/12 09:58:23;;;;;;;4.60;2.58;;;12.10;78.90;;;11.80;67.03;97227.91;5025346;28;20053;-56
2021/05/12 10:00:55;;;;;;;3.57;2.57;;;12.00;78.90;;;11.91;67.87;97227.53;5023474;28;20049;-55
2021/05/12 10:03:25;;;;;;;4.10;2.50;;;12.10;80.00;;;11.93;66.27;97240.69;5024338;28;20570;-55
2021/05/12 10:06:02;;;;;;;4.90;2.53;;;12.20;77.80;;;11.72;66.36;97228.81;5022738;28;20041;-56
2021/05/12 10:08:33;;;;;;;5.65;2.60;;;12.00;78.10;;;11.79;66.36;97236.94;5024690;28;20063;-54
2021/05/12 10:11:04;;;;;;;4.22;2.40;;;12.10;78.50;;;11.90;66.86;97225.84;5024279;28;20068;-55
2021/05/12 10:13:38;;;;;;;6.50;2.77;;;12.10;79.80;;;12.11;67.08;97222.50;5009861;28;20054;-54
2021/05/12 10:16:10;;;;;;;5.07;2.53;;;12.30;79.70;;;12.25;66.78;97222.72;4985793;28;20301;-56
2021/05/12 10:18:41;;;;;;;4.32;2.20;;;12.50;78.30;;;12.45;66.82;97217.69;5003835;28;20220;-54
2021/05/12 10:21:10;;;;;;;4.63;2.47;;;12.70;79.00;;;12.27;65.45;97218.88;5004335;28;20332;-54
2021/05/12 10:23:38;;;;;;;3.90;2.70;;;12.60;75.30;;;12.26;65.49;97216.38;5006030;28;20054;-55
2021/05/12 10:26:07;;;;;;;5.20;2.83;;;12.50;76.30;;;12.14;65.75;97214.16;4986421;28;20058;-55
2021/05/12 10:28:41;;;;;;;3.85;2.55;;;12.40;76.90;;;12.24;65.62;97213.88;5006522;28;20046;-56
2021/05/12 10:31:11;;;;;;;3.63;2.13;;;12.50;77.40;;;12.34;65.63;97208.28;4986903;28;20370;-52
2021/05/12 10:33:54;;;;;;;5.07;2.67;;;12.60;76.90;;;12.41;64.77;97210.03;5025325;28;20335;-56
2021/05/12 10:36:24;;;;;;;6.75;2.53;;;12.70;75.30;;;12.68;65.65;97207.72;5041539;28;20068;-56